Achat — 9HA3568 — position and weather

sailwx.info

Track history (hours):
 
Tides and Currents Weather Stations Pressure Air Temp Water Temp Dewpoint Dewpoint Depression Visibility Wind Speed Wind Dir Waves Ship Positions

Achat

Last reported at 2017-Sep-24 12:38 UTC. Time now 2017-Dec-12 21:44 UTC.
Position N 26°27' W 015°26'.
Warning: this ship's position is months out of date.

Length 190 m; draft 10.5 m.

Type: Cargo ship. MMSI: 229741000.

Date/timePositionNaut miles runAvg speedWind from/ knotsBaromVisibWave heightAir tempDewpointWater temp
2017-Sep-24 12:38N 26°27' W 015°26'412.0
2017-Sep-24 12:17N 26°29' W 015°23'412.0
2017-Sep-24 11:58N 26°32' W 015°20'612.0
2017-Sep-24 11:28N 26°36' W 015°15'612.0
2017-Sep-24 11:00N 26°39' W 015°10'1212.0
2017-Sep-24 10:02N 26°47' W 015°00'2011.9
2017-Sep-24 08:24N 27°01' W 014°45'1312.0
2017-Sep-24 07:18N 27°10' W 014°34'412.1
2017-Sep-24 06:57N 27°13' W 014°31'912.2
2017-Sep-24 06:10N 27°19' W 014°23'512.2
2017-Sep-24 05:47N 27°22' W 014°19'312.3
2017-Sep-24 05:30N 27°25' W 014°16'612.1
2017-Sep-24 04:59N 27°29' W 014°11'612.0
2017-Sep-24 04:30N 27°33' W 014°06'611.8
2017-Sep-24 04:00N 27°37' W 014°01'611.8
2017-Sep-24 03:30N 27°41' W 013°56'611.6
2017-Sep-24 03:00N 27°46' W 013°53'612.0
2017-Sep-24 02:30N 27°50' W 013°49'612.1
2017-Sep-24 02:00N 27°55' W 013°45'611.9
2017-Sep-24 01:30N 28°00' W 013°41'711.9
2017-Sep-24 00:57N 28°06' W 013°37'511.6
2017-Sep-24 00:30N 28°10' W 013°34'711.7
2017-Sep-23 23:52N 28°17' W 013°29'611.7
2017-Sep-23 23:22N 28°21' W 013°25'611.8
2017-Sep-23 22:52N 28°26' W 013°21'411.7
2017-Sep-23 22:30N 28°30' W 013°19'611.6
2017-Sep-23 22:00N 28°35' W 013°15'611.5
2017-Sep-23 21:30N 28°39' W 013°12'711.6
2017-Sep-23 20:54N 28°45' W 013°07'  
2017-Sep-21 05:21N 36°16' W 002°43'1411.6
2017-Sep-21 04:07N 36°17' W 002°26'111.4
2017-Sep-21 04:00N 36°17' W 002°24'611.1
2017-Sep-21 03:30N 36°18' W 002°18'5111.0
2017-Sep-20 22:51N 36°30' W 001°16'411.3
2017-Sep-20 22:28N 36°31' W 001°11'511.6
2017-Sep-20 22:00N 36°33' W 001°04'712.4
2017-Sep-20 21:26N 36°35' W 000°56'512.3
2017-Sep-20 21:00N 36°36' W 000°49'612.2
2017-Sep-20 20:29N 36°38' W 000°42'712.1
2017-Sep-20 19:55N 36°40' W 000°33'512.3
2017-Sep-20 19:29N 36°41' W 000°27'612.1
2017-Sep-20 19:00N 36°42' W 000°20'612.0
2017-Sep-20 18:30N 36°44' W 000°13'611.9
2017-Sep-20 18:00N 36°46' W 000°06'812.0
2017-Sep-20 17:18N 36°48' E 000°04'411.9
2017-Sep-20 17:00N 36°49' E 000°09'611.9
2017-Sep-20 16:30N 36°50' E 000°16'611.7
2017-Sep-20 16:00N 36°52' E 000°23'611.6
2017-Sep-20 15:30N 36°54' E 000°30'611.4
2017-Sep-20 15:00N 36°55' E 000°37'1211.6
2017-Sep-20 13:59N 36°58' E 000°51'611.6
2017-Sep-20 13:30N 37°00' E 000°57'1311.7
2017-Sep-20 12:23N 37°04' E 001°13'42811.4
2017-Sep-18 22:41N 37°40' E 010°10'210.9
2017-Sep-18 22:30N 37°40' E 010°12'1711.1
2017-Sep-18 21:00N 37°36' E 010°33'611.4
2017-Sep-18 20:28N 37°35' E 010°40'2311.6
2017-Sep-18 18:29N 37°29' E 011°08'5111.9
2017-Sep-18 14:10N 37°03' E 012°04'3011.1
2017-Sep-18 11:25N 36°48' E 012°37'511.1
2017-Sep-18 11:00N 36°46' E 012°42'611.3
2017-Sep-18 10:30N 36°43' E 012°48'611.4
2017-Sep-18 10:00N 36°41' E 012°55'611.3
2017-Sep-18 09:30N 36°40' E 013°02'611.2
2017-Sep-18 09:00N 36°38' E 013°08'611.9
2017-Sep-18 08:30N 36°35' E 013°15'611.9
2017-Sep-18 08:00N 36°33' E 013°22'611.8
2017-Sep-18 07:30N 36°30' E 013°28'611.7
2017-Sep-18 07:00N 36°28' E 013°35'611.8
2017-Sep-18 06:30N 36°25' E 013°41'611.7
2017-Sep-18 06:00N 36°22' E 013°48'611.5
2017-Sep-18 05:30N 36°20' E 013°54'611.5
2017-Sep-18 05:00N 36°17' E 014°00'611.6
2017-Sep-18 04:30N 36°13' E 014°06'611.5
2017-Sep-18 04:00N 36°11' E 014°12'611.4
2017-Sep-18 03:30N 36°08' E 014°19'611.2
2017-Sep-18 03:00N 36°05' E 014°24'611.6
2017-Sep-18 02:30N 36°02' E 014°30'611.6
2017-Sep-18 02:00N 35°58' E 014°36'611.7
2017-Sep-18 01:30N 35°55' E 014°42'4 7.4
2017-Sep-18 01:00N 35°53' E 014°46'0 0.2
2017-Sep-18 00:28N 35°52' E 014°46'0 0.0
2017-Sep-17 23:58N 35°52' E 014°46'0 0.0
2017-Sep-17 23:28N 35°52' E 014°46'0 0.0
2017-Sep-17 22:58N 35°52' E 014°46'0 0.1
2017-Sep-17 22:28N 35°52' E 014°45'0 0.0
2017-Sep-17 21:58N 35°52' E 014°45'0 0.0
2017-Sep-17 21:28N 35°52' E 014°46'0 0.1
2017-Sep-17 20:52N 35°52' E 014°46'0 0.0
2017-Sep-17 20:28N 35°52' E 014°46'0 0.0
2017-Sep-17 19:58N 35°52' E 014°46'0 0.0
2017-Sep-17 19:22N 35°52' E 014°46'0 0.1
2017-Sep-17 18:58N 35°52' E 014°46'0 0.2
2017-Sep-17 18:28N 35°52' E 014°46'0 0.1
2017-Sep-17 17:52N 35°53' E 014°46'0 0.3
2017-Sep-17 17:25N 35°52' E 014°46'0 0.3
2017-Sep-17 17:00N 35°53' E 014°46'3 5.1
2017-Sep-17 16:30N 35°54' E 014°43'510.6
2017-Sep-17 16:00N 35°56' E 014°37'1 2.4
2017-Sep-17 15:30N 35°56' E 014°35'0 0.6
2017-Sep-17 15:00N 35°56' E 014°36'2 3.2
2017-Sep-17 14:30N 35°56' E 014°38'4 8.1
2017-Sep-17 14:00N 35°54' E 014°42'611.7
2017-Sep-17 13:30N 35°51' E 014°48'611.7
2017-Sep-17 13:00N 35°50' E 014°55'611.9
2017-Sep-17 12:30N 35°49' E 015°02'612.0
2017-Sep-17 12:00N 35°47' E 015°10'611.9
2017-Sep-17 11:30N 35°47' E 015°17'611.8
2017-Sep-17 11:00N 35°47' E 015°24'611.8
2017-Sep-17 10:30N 35°47' E 015°32'611.6
2017-Sep-17 10:00N 35°47' E 015°39'611.6
2017-Sep-17 09:30N 35°47' E 015°46'611.4
2017-Sep-17 09:00N 35°47' E 015°53'511.0
2017-Sep-17 08:30N 35°47' E 015°60'611.2
2017-Sep-17 08:00N 35°47' E 016°07'611.5
2017-Sep-17 07:30N 35°47' E 016°14'611.5
2017-Sep-17 07:00N 35°47' E 016°21'611.3
2017-Sep-17 06:30N 35°47' E 016°28'611.4
2017-Sep-17 06:00N 35°47' E 016°35'611.5
2017-Sep-17 05:30N 35°47' E 016°42'611.4
2017-Sep-17 05:00N 35°47' E 016°49'611.5
2017-Sep-17 04:30N 35°47' E 016°56'611.6
2017-Sep-17 04:00N 35°47' E 017°03'611.6
2017-Sep-17 03:30N 35°47' E 017°10'611.5
2017-Sep-17 03:00N 35°47' E 017°17'611.5
2017-Sep-17 02:30N 35°47' E 017°24'611.7
2017-Sep-17 02:00N 35°47' E 017°32'611.8
2017-Sep-17 01:30N 35°47' E 017°39'611.7
2017-Sep-17 01:00N 35°47' E 017°46'611.7
2017-Sep-17 00:30N 35°47' E 017°53'611.7
2017-Sep-17 00:00N 35°47' E 018°00'611.7
2017-Sep-16 23:30N 35°47' E 018°08'611.7
2017-Sep-16 23:00N 35°47' E 018°15'611.7
2017-Sep-16 22:30N 35°47' E 018°22'611.6
2017-Sep-16 22:00N 35°47' E 018°29'611.5
2017-Sep-16 21:30N 35°46' E 018°36'611.4
2017-Sep-16 21:00N 35°46' E 018°43'611.5
2017-Sep-16 20:30N 35°46' E 018°50'611.6
2017-Sep-16 20:00N 35°46' E 018°58'611.8
2017-Sep-16 19:30N 35°46' E 019°05'612.0
2017-Sep-16 19:00N 35°46' E 019°12'612.1
2017-Sep-16 18:30N 35°46' E 019°20'612.0
2017-Sep-16 18:00N 35°46' E 019°27'612.0
2017-Sep-16 17:30N 35°46' E 019°35'611.8
2017-Sep-16 17:00N 35°46' E 019°42'611.7
2017-Sep-16 16:30N 35°46' E 019°49'611.6
2017-Sep-16 16:00N 35°46' E 019°56'611.5
2017-Sep-16 15:30N 35°46' E 020°03'611.3
2017-Sep-16 15:00N 35°46' E 020°10'711.4
2017-Sep-16 14:25N 35°46' E 020°18'1011.5
2017-Sep-16 13:33N 35°46' E 020°31'1611.7
2017-Sep-16 12:11N 35°46' E 020°51'212.0
2017-Sep-16 12:00N 35°46' E 020°53'7311.9
2017-Sep-16 05:53N 35°45' E 022°23'1511.4
2017-Sep-16 04:33N 35°45' E 022°42'111.7
2017-Sep-16 04:30N 35°45' E 022°43'9611.3
2017-Sep-15 20:01N 35°40' E 024°41'011.0
2017-Sep-15 20:00N 35°40' E 024°41'32311.1
2017-Sep-14 14:58N 35°33' E 031°18'511.4
2017-Sep-14 14:30N 35°33' E 031°24'611.4
2017-Sep-14 14:00N 35°34' E 031°31'611.4
2017-Sep-14 13:30N 35°34' E 031°38'611.5
2017-Sep-14 13:00N 35°35' E 031°45'  
Track history (hours):
 
Tides and Currents Weather Stations Pressure Air Temp Water Temp Dewpoint Dewpoint Depression Visibility Wind Speed Wind Dir Waves Ship Positions

Achat

Last reported at 2017-Sep-24 12:38 UTC. Time now 2017-Dec-12 21:44 UTC.
Position N 26°27' W 015°26'.
Warning: this ship's position is months out of date.

Length 190 m; draft 10.5 m.

Type: Cargo ship. MMSI: 229741000.

Date/timePositionNaut miles runAvg speedWind from/ knotsBaromVisibWave heightAir tempDewpointWater temp
2017-Sep-24 12:38N 26°27' W 015°26'412.0
2017-Sep-24 12:17N 26°29' W 015°23'412.0
2017-Sep-24 11:58N 26°32' W 015°20'612.0
2017-Sep-24 11:28N 26°36' W 015°15'612.0
2017-Sep-24 11:00N 26°39' W 015°10'1212.0
2017-Sep-24 10:02N 26°47' W 015°00'2011.9
2017-Sep-24 08:24N 27°01' W 014°45'1312.0
2017-Sep-24 07:18N 27°10' W 014°34'412.1
2017-Sep-24 06:57N 27°13' W 014°31'912.2
2017-Sep-24 06:10N 27°19' W 014°23'512.2
2017-Sep-24 05:47N 27°22' W 014°19'312.3
2017-Sep-24 05:30N 27°25' W 014°16'612.1
2017-Sep-24 04:59N 27°29' W 014°11'612.0
2017-Sep-24 04:30N 27°33' W 014°06'611.8
2017-Sep-24 04:00N 27°37' W 014°01'611.8
2017-Sep-24 03:30N 27°41' W 013°56'611.6
2017-Sep-24 03:00N 27°46' W 013°53'612.0
2017-Sep-24 02:30N 27°50' W 013°49'612.1
2017-Sep-24 02:00N 27°55' W 013°45'611.9
2017-Sep-24 01:30N 28°00' W 013°41'711.9
2017-Sep-24 00:57N 28°06' W 013°37'511.6
2017-Sep-24 00:30N 28°10' W 013°34'711.7
2017-Sep-23 23:52N 28°17' W 013°29'611.7
2017-Sep-23 23:22N 28°21' W 013°25'611.8
2017-Sep-23 22:52N 28°26' W 013°21'411.7
2017-Sep-23 22:30N 28°30' W 013°19'611.6
2017-Sep-23 22:00N 28°35' W 013°15'611.5
2017-Sep-23 21:30N 28°39' W 013°12'711.6
2017-Sep-23 20:54N 28°45' W 013°07'  
2017-Sep-21 05:21N 36°16' W 002°43'1411.6
2017-Sep-21 04:07N 36°17' W 002°26'111.4
2017-Sep-21 04:00N 36°17' W 002°24'611.1
2017-Sep-21 03:30N 36°18' W 002°18'5111.0
2017-Sep-20 22:51N 36°30' W 001°16'411.3
2017-Sep-20 22:28N 36°31' W 001°11'511.6
2017-Sep-20 22:00N 36°33' W 001°04'712.4
2017-Sep-20 21:26N 36°35' W 000°56'512.3
2017-Sep-20 21:00N 36°36' W 000°49'612.2
2017-Sep-20 20:29N 36°38' W 000°42'712.1
2017-Sep-20 19:55N 36°40' W 000°33'512.3
2017-Sep-20 19:29N 36°41' W 000°27'612.1
2017-Sep-20 19:00N 36°42' W 000°20'612.0
2017-Sep-20 18:30N 36°44' W 000°13'611.9
2017-Sep-20 18:00N 36°46' W 000°06'812.0
2017-Sep-20 17:18N 36°48' E 000°04'411.9
2017-Sep-20 17:00N 36°49' E 000°09'611.9
2017-Sep-20 16:30N 36°50' E 000°16'611.7
2017-Sep-20 16:00N 36°52' E 000°23'611.6
2017-Sep-20 15:30N 36°54' E 000°30'611.4
2017-Sep-20 15:00N 36°55' E 000°37'1211.6
2017-Sep-20 13:59N 36°58' E 000°51'611.6
2017-Sep-20 13:30N 37°00' E 000°57'1311.7
2017-Sep-20 12:23N 37°04' E 001°13'42811.4
2017-Sep-18 22:41N 37°40' E 010°10'210.9
2017-Sep-18 22:30N 37°40' E 010°12'1711.1
2017-Sep-18 21:00N 37°36' E 010°33'611.4
2017-Sep-18 20:28N 37°35' E 010°40'2311.6
2017-Sep-18 18:29N 37°29' E 011°08'5111.9
2017-Sep-18 14:10N 37°03' E 012°04'3011.1
2017-Sep-18 11:25N 36°48' E 012°37'511.1
2017-Sep-18 11:00N 36°46' E 012°42'611.3
2017-Sep-18 10:30N 36°43' E 012°48'611.4
2017-Sep-18 10:00N 36°41' E 012°55'611.3
2017-Sep-18 09:30N 36°40' E 013°02'611.2
2017-Sep-18 09:00N 36°38' E 013°08'611.9
2017-Sep-18 08:30N 36°35' E 013°15'611.9
2017-Sep-18 08:00N 36°33' E 013°22'611.8
2017-Sep-18 07:30N 36°30' E 013°28'611.7
2017-Sep-18 07:00N 36°28' E 013°35'611.8
2017-Sep-18 06:30N 36°25' E 013°41'611.7
2017-Sep-18 06:00N 36°22' E 013°48'611.5
2017-Sep-18 05:30N 36°20' E 013°54'611.5
2017-Sep-18 05:00N 36°17' E 014°00'611.6
2017-Sep-18 04:30N 36°13' E 014°06'611.5
2017-Sep-18 04:00N 36°11' E 014°12'611.4
2017-Sep-18 03:30N 36°08' E 014°19'611.2
2017-Sep-18 03:00N 36°05' E 014°24'611.6
2017-Sep-18 02:30N 36°02' E 014°30'611.6
2017-Sep-18 02:00N 35°58' E 014°36'611.7
2017-Sep-18 01:30N 35°55' E 014°42'4 7.4
2017-Sep-18 01:00N 35°53' E 014°46'0 0.2
2017-Sep-18 00:28N 35°52' E 014°46'0 0.0
2017-Sep-17 23:58N 35°52' E 014°46'0 0.0
2017-Sep-17 23:28N 35°52' E 014°46'0 0.0
2017-Sep-17 22:58N 35°52' E 014°46'0 0.1
2017-Sep-17 22:28N 35°52' E 014°45'0 0.0
2017-Sep-17 21:58N 35°52' E 014°45'0 0.0
2017-Sep-17 21:28N 35°52' E 014°46'0 0.1
2017-Sep-17 20:52N 35°52' E 014°46'0 0.0
2017-Sep-17 20:28N 35°52' E 014°46'0 0.0
2017-Sep-17 19:58N 35°52' E 014°46'0 0.0
2017-Sep-17 19:22N 35°52' E 014°46'0 0.1
2017-Sep-17 18:58N 35°52' E 014°46'0 0.2
2017-Sep-17 18:28N 35°52' E 014°46'0 0.1
2017-Sep-17 17:52N 35°53' E 014°46'0 0.3
2017-Sep-17 17:25N 35°52' E 014°46'0 0.3
2017-Sep-17 17:00N 35°53' E 014°46'3 5.1
2017-Sep-17 16:30N 35°54' E 014°43'510.6
2017-Sep-17 16:00N 35°56' E 014°37'1 2.4
2017-Sep-17 15:30N 35°56' E 014°35'0 0.6
2017-Sep-17 15:00N 35°56' E 014°36'2 3.2
2017-Sep-17 14:30N 35°56' E 014°38'4 8.1
2017-Sep-17 14:00N 35°54' E 014°42'611.7
2017-Sep-17 13:30N 35°51' E 014°48'611.7
2017-Sep-17 13:00N 35°50' E 014°55'611.9
2017-Sep-17 12:30N 35°49' E 015°02'612.0
2017-Sep-17 12:00N 35°47' E 015°10'611.9
2017-Sep-17 11:30N 35°47' E 015°17'611.8
2017-Sep-17 11:00N 35°47' E 015°24'611.8
2017-Sep-17 10:30N 35°47' E 015°32'611.6
2017-Sep-17 10:00N 35°47' E 015°39'611.6
2017-Sep-17 09:30N 35°47' E 015°46'611.4
2017-Sep-17 09:00N 35°47' E 015°53'511.0
2017-Sep-17 08:30N 35°47' E 015°60'611.2
2017-Sep-17 08:00N 35°47' E 016°07'611.5
2017-Sep-17 07:30N 35°47' E 016°14'611.5
2017-Sep-17 07:00N 35°47' E 016°21'611.3
2017-Sep-17 06:30N 35°47' E 016°28'611.4
2017-Sep-17 06:00N 35°47' E 016°35'611.5
2017-Sep-17 05:30N 35°47' E 016°42'611.4
2017-Sep-17 05:00N 35°47' E 016°49'611.5
2017-Sep-17 04:30N 35°47' E 016°56'611.6
2017-Sep-17 04:00N 35°47' E 017°03'611.6
2017-Sep-17 03:30N 35°47' E 017°10'611.5
2017-Sep-17 03:00N 35°47' E 017°17'611.5
2017-Sep-17 02:30N 35°47' E 017°24'611.7
2017-Sep-17 02:00N 35°47' E 017°32'611.8
2017-Sep-17 01:30N 35°47' E 017°39'611.7
2017-Sep-17 01:00N 35°47' E 017°46'611.7
2017-Sep-17 00:30N 35°47' E 017°53'611.7
2017-Sep-17 00:00N 35°47' E 018°00'611.7
2017-Sep-16 23:30N 35°47' E 018°08'611.7
2017-Sep-16 23:00N 35°47' E 018°15'611.7
2017-Sep-16 22:30N 35°47' E 018°22'611.6
2017-Sep-16 22:00N 35°47' E 018°29'611.5
2017-Sep-16 21:30N 35°46' E 018°36'611.4
2017-Sep-16 21:00N 35°46' E 018°43'611.5
2017-Sep-16 20:30N 35°46' E 018°50'611.6
2017-Sep-16 20:00N 35°46' E 018°58'611.8
2017-Sep-16 19:30N 35°46' E 019°05'612.0
2017-Sep-16 19:00N 35°46' E 019°12'612.1
2017-Sep-16 18:30N 35°46' E 019°20'612.0
2017-Sep-16 18:00N 35°46' E 019°27'612.0
2017-Sep-16 17:30N 35°46' E 019°35'611.8
2017-Sep-16 17:00N 35°46' E 019°42'611.7
2017-Sep-16 16:30N 35°46' E 019°49'611.6
2017-Sep-16 16:00N 35°46' E 019°56'611.5
2017-Sep-16 15:30N 35°46' E 020°03'611.3
2017-Sep-16 15:00N 35°46' E 020°10'711.4
2017-Sep-16 14:25N 35°46' E 020°18'1011.5
2017-Sep-16 13:33N 35°46' E 020°31'1611.7
2017-Sep-16 12:11N 35°46' E 020°51'212.0
2017-Sep-16 12:00N 35°46' E 020°53'7311.9
2017-Sep-16 05:53N 35°45' E 022°23'1511.4
2017-Sep-16 04:33N 35°45' E 022°42'111.7
2017-Sep-16 04:30N 35°45' E 022°43'9611.3
2017-Sep-15 20:01N 35°40' E 024°41'011.0
2017-Sep-15 20:00N 35°40' E 024°41'32311.1
2017-Sep-14 14:58N 35°33' E 031°18'511.4
2017-Sep-14 14:30N 35°33' E 031°24'611.4
2017-Sep-14 14:00N 35°34' E 031°31'611.4
2017-Sep-14 13:30N 35°34' E 031°38'611.5
2017-Sep-14 13:00N 35°35' E 031°45'  

Dump ship's entire track history